Time;durP1;ratioP1;P1;durP2;ratioP2;P2;SDS_P1;SDS_P2;PMS_P1;PMS_P2;Temp;Humidity;BMP_temperature;BMP_pressure;BME280_temperature;BME280_humidity;BME280_pressure;Samples;Min_cycle;Max_cycle;Signal;HPM_P1;HPM_P2
2022/07/25 00:00:42;;;;;;;4.47;1.80;;;20.90;99.90;;;;;;4934262;29;20119;-53
2022/07/25 00:03:09;;;;;;;7.15;2.35;;;20.80;99.90;;;;;;4933827;29;20044;-51
2022/07/25 00:05:36;;;;;;;9.75;2.00;;;20.90;99.90;;;;;;4934253;29;20048;-52
2022/07/25 00:08:04;;;;;;;8.27;2.38;;;21.00;99.90;;;;;;4934014;29;20056;-55
2022/07/25 00:10:30;;;;;;;9.93;2.25;;;21.00;99.90;;;;;;4932795;29;20094;-53
2022/07/25 00:12:57;;;;;;;8.57;1.63;;;21.00;99.90;;;;;;4933692;29;20094;-47
2022/07/25 00:15:24;;;;;;;10.32;1.98;;;21.10;99.90;;;;;;4933808;29;20083;-52
2022/07/25 00:17:51;;;;;;;10.02;2.63;;;21.10;99.90;;;;;;4933457;29;20087;-54
2022/07/25 00:20:18;;;;;;;5.60;1.60;;;21.10;99.90;;;;;;4933527;29;20122;-53
2022/07/25 00:22:44;;;;;;;8.45;1.95;;;21.10;99.90;;;;;;4933627;29;20492;-54
2022/07/25 00:25:11;;;;;;;6.35;1.67;;;21.10;99.90;;;;;;4933232;29;20486;-56
2022/07/25 00:27:38;;;;;;;6.30;1.85;;;21.20;99.90;;;;;;4932451;29;20123;-54
2022/07/25 00:30:05;;;;;;;4.38;1.70;;;21.10;99.90;;;;;;4933503;29;20094;-51
2022/07/25 00:32:32;;;;;;;6.10;2.33;;;21.20;99.90;;;;;;4933455;29;20475;-53
2022/07/25 00:34:59;;;;;;;5.80;1.58;;;21.10;99.90;;;;;;4933677;29;20142;-52
2022/07/25 00:37:25;;;;;;;8.90;2.30;;;21.10;99.90;;;;;;4933180;29;20056;-52
2022/07/25 00:39:52;;;;;;;4.78;1.65;;;21.10;99.90;;;;;;4933490;29;20055;-52
2022/07/25 00:42:20;;;;;;;6.95;1.58;;;21.10;99.90;;;;;;4933334;29;20138;-53
2022/07/25 00:44:47;;;;;;;4.70;1.88;;;21.10;99.90;;;;;;4933494;29;20110;-53
2022/07/25 00:47:14;;;;;;;4.30;2.10;;;21.10;99.90;;;;;;4933313;29;20093;-53
2022/07/25 00:49:40;;;;;;;8.35;2.13;;;21.00;99.90;;;;;;4933298;29;20083;-54
2022/07/25 00:52:07;;;;;;;7.95;2.42;;;21.00;99.90;;;;;;4932344;29;20198;-53
2022/07/25 00:54:34;;;;;;;8.27;2.35;;;20.90;99.90;;;;;;4933197;29;20138;-53
2022/07/25 00:57:01;;;;;;;8.43;2.28;;;20.80;99.90;;;;;;4933035;29;20052;-54
2022/07/25 00:59:28;;;;;;;7.03;2.00;;;20.70;99.90;;;;;;4932967;29;20054;-52
2022/07/25 01:01:54;;;;;;;5.28;2.25;;;20.70;99.90;;;;;;4932669;29;20566;-50
2022/07/25 01:04:21;;;;;;;5.47;2.60;;;20.70;99.90;;;;;;4933031;29;20063;-53
2022/07/25 01:06:48;;;;;;;6.55;2.10;;;20.70;99.90;;;;;;4932013;29;20047;-54
2022/07/25 01:09:15;;;;;;;5.40;2.15;;;20.70;99.90;;;;;;4931663;29;20048;-53
2022/07/25 01:11:42;;;;;;;5.60;2.20;;;20.70;99.90;;;;;;4931616;29;20126;-55
2022/07/25 01:14:08;;;;;;;8.10;2.85;;;20.60;99.90;;;;;;4932685;29;20151;-54
2022/07/25 01:16:35;;;;;;;5.57;2.30;;;20.60;99.90;;;;;;4932658;29;20062;-55
2022/07/25 01:19:02;;;;;;;7.65;2.45;;;20.70;99.90;;;;;;4932724;29;20077;-55
2022/07/25 01:21:29;;;;;;;14.60;2.67;;;20.60;99.90;;;;;;4933222;29;20044;-53
2022/07/25 01:23:56;;;;;;;7.55;1.98;;;20.70;99.90;;;;;;4932411;29;20048;-53
2022/07/25 01:26:22;;;;;;;9.70;2.38;;;20.70;99.90;;;;;;4932794;29;20131;-52
2022/07/25 01:28:49;;;;;;;5.97;2.58;;;20.60;99.90;;;;;;4932369;29;20079;-52
2022/07/25 01:31:16;;;;;;;5.85;2.47;;;20.60;99.90;;;;;;4932417;29;20079;-54
2022/07/25 01:33:43;;;;;;;4.40;2.50;;;20.50;99.90;;;;;;4932318;29;20048;-52
2022/07/25 01:36:10;;;;;;;7.50;2.22;;;20.50;99.90;;;;;;4932124;29;20143;-54
2022/07/25 01:38:37;;;;;;;4.50;2.13;;;20.50;99.90;;;;;;4932455;29;20082;-53
2022/07/25 01:41:04;;;;;;;4.88;1.92;;;20.40;99.90;;;;;;4932789;29;20138;-54
2022/07/25 01:43:30;;;;;;;5.90;3.15;;;20.40;99.90;;;;;;4932312;29;20139;-49
2022/07/25 01:45:57;;;;;;;8.98;2.40;;;20.40;99.90;;;;;;4932253;29;20134;-52
2022/07/25 01:48:24;;;;;;;7.13;2.35;;;20.30;99.90;;;;;;4932122;29;20415;-51
2022/07/25 01:50:51;;;;;;;4.50;1.85;;;20.30;99.90;;;;;;4932245;29;20085;-52
2022/07/25 01:53:18;;;;;;;7.25;2.00;;;20.30;99.90;;;;;;4931986;29;20133;-53
2022/07/25 01:55:45;;;;;;;8.23;2.90;;;20.30;99.90;;;;;;4932102;29;20054;-52
2022/07/25 01:58:12;;;;;;;5.75;1.63;;;20.30;99.90;;;;;;4931917;29;20098;-53
2022/07/25 02:00:39;;;;;;;6.63;2.25;;;20.30;99.90;;;;;;4931821;29;20472;-54
2022/07/25 02:05:51;;;;;;;6.00;1.60;;;20.20;99.90;;;;;;4931496;29;20902;-51
2022/07/25 02:08:17;;;;;;;7.65;1.98;;;20.20;99.90;;;;;;4931896;29;20043;-50
2022/07/25 02:10:44;;;;;;;6.95;2.17;;;20.20;99.90;;;;;;4930354;29;20408;-54
2022/07/25 02:13:11;;;;;;;6.13;2.42;;;20.20;99.90;;;;;;4930534;29;20324;-54
2022/07/25 02:15:38;;;;;;;11.80;3.33;;;20.20;99.90;;;;;;4931710;29;20075;-51
2022/07/25 02:18:05;;;;;;;8.70;2.38;;;20.20;99.90;;;;;;4931665;29;20134;-55
2022/07/25 02:20:31;;;;;;;3.42;2.10;;;20.20;99.90;;;;;;4931503;29;20496;-55
2022/07/25 02:22:58;;;;;;;9.00;2.40;;;20.20;99.90;;;;;;4931516;29;20071;-53
2022/07/25 02:25:25;;;;;;;6.88;2.17;;;20.10;99.90;;;;;;4931518;29;20071;-54
2022/07/25 02:27:52;;;;;;;4.97;2.22;;;20.20;99.90;;;;;;4931282;29;20126;-53
2022/07/25 02:30:18;;;;;;;8.82;2.85;;;20.10;99.90;;;;;;4931397;29;20567;-53
2022/07/25 02:32:45;;;;;;;7.90;2.72;;;20.00;99.90;;;;;;4931769;29;20317;-54
2022/07/25 02:35:12;;;;;;;13.57;3.08;;;19.80;99.90;;;;;;4931457;29;20083;-52
2022/07/25 02:37:39;;;;;;;6.25;1.92;;;19.80;99.90;;;;;;4931303;29;20098;-54
2022/07/25 02:40:06;;;;;;;6.07;2.42;;;19.80;99.90;;;;;;4931061;29;20083;-53
2022/07/25 02:42:33;;;;;;;9.38;3.28;;;19.80;99.90;;;;;;4931621;29;20051;-52
2022/07/25 02:45:00;;;;;;;5.50;2.20;;;19.80;99.90;;;;;;4931348;29;20094;-53
2022/07/25 02:47:27;;;;;;;10.10;3.53;;;19.80;99.90;;;;;;4931051;29;20086;-53
2022/07/25 02:49:54;;;;;;;8.73;3.30;;;19.80;99.90;;;;;;4931059;29;20143;-54
2022/07/25 02:52:21;;;;;;;10.43;2.35;;;19.90;99.90;;;;;;4931417;29;20138;-51
2022/07/25 02:54:49;;;;;;;8.50;3.00;;;19.90;99.90;;;;;;4930452;29;20143;-53
2022/07/25 02:57:16;;;;;;;9.50;2.10;;;19.80;99.90;;;;;;4930834;29;20056;-49
2022/07/25 02:59:43;;;;;;;10.93;2.28;;;19.80;99.90;;;;;;4931258;29;20130;-51
2022/07/25 03:02:09;;;;;;;7.32;1.90;;;19.80;99.90;;;;;;4930804;29;20253;-52
2022/07/25 03:04:36;;;;;;;11.30;2.63;;;19.70;99.90;;;;;;4930857;29;20075;-54
2022/07/25 03:07:03;;;;;;;11.88;2.85;;;19.70;99.90;;;;;;4930724;29;20662;-54
2022/07/25 03:09:30;;;;;;;6.57;2.50;;;19.70;99.90;;;;;;4931412;29;20126;-51
2022/07/25 03:11:56;;;;;;;7.45;2.45;;;19.70;99.90;;;;;;4931050;29;20098;-54
2022/07/25 03:14:23;;;;;;;18.73;2.90;;;19.70;99.90;;;;;;4930421;29;20071;-51
2022/07/25 03:16:50;;;;;;;8.45;3.75;;;19.60;99.90;;;;;;4930514;29;20083;-53
2022/07/25 03:19:17;;;;;;;11.65;2.83;;;19.60;99.90;;;;;;4930585;29;20087;-53
2022/07/25 03:21:44;;;;;;;14.25;3.72;;;19.70;99.90;;;;;;4930705;29;20075;-52
2022/07/25 03:24:11;;;;;;;12.60;3.15;;;19.60;99.90;;;;;;4930648;29;20099;-50
2022/07/25 03:26:38;;;;;;;7.47;2.53;;;19.70;99.90;;;;;;4930799;29;20359;-52
2022/07/25 03:29:05;;;;;;;7.70;2.38;;;19.70;99.90;;;;;;4930626;29;20118;-51
2022/07/25 03:31:32;;;;;;;7.15;2.92;;;19.70;99.90;;;;;;4931066;29;20052;-51
2022/07/25 03:33:58;;;;;;;5.85;2.53;;;19.70;99.90;;;;;;4930435;29;20220;-50
2022/07/25 03:36:25;;;;;;;7.82;3.13;;;19.70;99.90;;;;;;4930962;29;20304;-50
2022/07/25 03:38:54;;;;;;;10.70;3.60;;;19.70;99.90;;;;;;4930652;29;20452;-52
2022/07/25 03:41:21;;;;;;;9.48;2.88;;;19.60;99.90;;;;;;4926409;29;20143;-54
2022/07/25 03:43:48;;;;;;;10.52;3.03;;;19.60;99.90;;;;;;4930244;29;20112;-50
2022/07/25 03:46:15;;;;;;;10.18;2.45;;;19.60;99.90;;;;;;4930709;29;20082;-51
2022/07/25 03:48:42;;;;;;;10.43;2.42;;;19.50;99.90;;;;;;4930264;29;20052;-50
2022/07/25 03:51:08;;;;;;;10.77;2.75;;;19.50;99.90;;;;;;4930964;29;20044;-51
2022/07/25 03:54:00;;;;;;;10.80;3.67;;;19.50;99.90;;;;;;4930224;29;20093;-53
2022/07/25 03:56:22;;;;;;;11.10;2.42;;;19.50;99.90;;;;;;4929035;29;20130;-51
2022/07/25 03:58:49;;;;;;;14.07;3.15;;;19.50;99.90;;;;;;4929175;29;20043;-54
2022/07/25 04:01:16;;;;;;;12.73;2.88;;;19.60;99.90;;;;;;4930491;29;20086;-53
2022/07/25 04:03:44;;;;;;;9.60;3.10;;;19.60;99.90;;;;;;4927396;29;20416;-53
2022/07/25 04:06:11;;;;;;;10.88;3.78;;;19.50;99.90;;;;;;4930586;29;20106;-53
2022/07/25 04:08:38;;;;;;;7.32;2.40;;;19.60;99.90;;;;;;4930431;29;20381;-54
2022/07/25 04:11:05;;;;;;;9.23;2.85;;;19.60;99.90;;;;;;4930261;29;20108;-52
2022/07/25 04:13:32;;;;;;;10.25;2.80;;;19.60;99.90;;;;;;4930244;29;20082;-54
2022/07/25 04:15:58;;;;;;;10.35;2.80;;;19.50;99.90;;;;;;4930123;29;20087;-52
2022/07/25 04:18:25;;;;;;;14.20;3.90;;;19.50;99.90;;;;;;4930305;29;20040;-54
2022/07/25 04:20:54;;;;;;;12.65;3.17;;;19.50;99.90;;;;;;4930424;29;20058;-53
2022/07/25 04:23:21;;;;;;;13.95;2.90;;;19.50;99.90;;;;;;4930653;29;20079;-52
2022/07/25 04:25:48;;;;;;;17.33;3.72;;;19.50;99.90;;;;;;4930916;29;20358;-53
2022/07/25 04:28:14;;;;;;;8.73;3.08;;;19.50;99.90;;;;;;4933610;29;20087;-55
2022/07/25 04:30:44;;;;;;;11.85;3.15;;;19.50;99.90;;;;;;4933867;29;20087;-51
2022/07/25 04:33:11;;;;;;;10.15;2.83;;;19.40;99.90;;;;;;4933541;29;20052;-55
2022/07/25 04:35:38;;;;;;;12.20;3.17;;;19.50;99.90;;;;;;4933670;29;20074;-53
2022/07/25 04:38:05;;;;;;;15.57;3.13;;;19.50;99.90;;;;;;4933604;29;20079;-51
2022/07/25 04:40:37;;;;;;;8.07;3.10;;;19.40;99.90;;;;;;4933536;29;20194;-52
2022/07/25 04:43:04;;;;;;;9.00;2.67;;;19.40;99.90;;;;;;4933333;29;20111;-52
2022/07/25 04:45:31;;;;;;;10.13;3.33;;;19.20;99.90;;;;;;4933462;29;20114;-53
2022/07/25 04:47:58;;;;;;;8.45;2.90;;;19.30;99.90;;;;;;4933437;29;20059;-53
2022/07/25 04:50:25;;;;;;;9.35;2.55;;;19.20;99.90;;;;;;4933034;29;20083;-52
2022/07/25 04:52:52;;;;;;;11.73;3.05;;;19.30;99.90;;;;;;4933174;28;20467;-53
2022/07/25 04:55:19;;;;;;;7.88;3.10;;;19.30;99.90;;;;;;4933012;29;20044;-56
2022/07/25 04:57:46;;;;;;;11.98;3.17;;;19.30;99.90;;;;;;4933118;29;20083;-52
2022/07/25 05:00:13;;;;;;;12.88;4.10;;;19.30;99.90;;;;;;4933276;29;20075;-51
2022/07/25 05:02:41;;;;;;;13.48;3.92;;;19.30;99.90;;;;;;4932922;29;20055;-54
2022/07/25 05:05:08;;;;;;;8.55;3.72;;;19.40;99.90;;;;;;4920902;29;20052;-54
2022/07/25 05:07:47;;;;;;;9.48;2.85;;;19.30;99.90;;;;;;4932863;29;20048;-54
2022/07/25 05:10:14;;;;;;;12.70;3.60;;;19.20;99.90;;;;;;4931850;29;20130;-52
2022/07/25 05:12:41;;;;;;;9.73;3.35;;;19.30;99.90;;;;;;4932919;29;20086;-53
2022/07/25 05:15:08;;;;;;;14.32;3.35;;;19.20;99.90;;;;;;4932824;29;20495;-52
2022/07/25 05:17:35;;;;;;;12.57;2.90;;;19.20;99.90;;;;;;4924457;29;20434;-52
2022/07/25 05:20:02;;;;;;;13.63;2.95;;;19.20;99.90;;;;;;4932588;29;20131;-50
2022/07/25 05:22:29;;;;;;;17.63;3.38;;;19.20;99.90;;;;;;4932473;29;20052;-49
2022/07/25 05:24:56;;;;;;;11.65;3.20;;;19.10;99.90;;;;;;4932287;29;20147;-53
2022/07/25 05:27:23;;;;;;;14.27;3.47;;;19.00;99.90;;;;;;4932553;29;20109;-52
2022/07/25 05:29:49;;;;;;;12.57;3.20;;;19.10;99.90;;;;;;4932506;29;20658;-52
2022/07/25 05:32:16;;;;;;;15.65;3.33;;;19.10;99.90;;;;;;4932302;29;20143;-51
2022/07/25 05:34:43;;;;;;;7.57;3.47;;;19.10;99.90;;;;;;4932869;29;20535;-51
2022/07/25 05:37:10;;;;;;;11.98;2.85;;;19.00;99.90;;;;;;4931960;29;20062;-53
2022/07/25 05:39:39;;;;;;;10.50;3.00;;;19.00;99.90;;;;;;4932726;29;20090;-53
2022/07/25 05:42:06;;;;;;;11.70;2.50;;;19.10;99.90;;;;;;4931930;29;20092;-54
2022/07/25 05:44:33;;;;;;;10.27;2.67;;;19.10;99.90;;;;;;4932543;29;20047;-53
2022/07/25 05:46:59;;;;;;;14.13;3.45;;;19.00;99.90;;;;;;4931904;29;20143;-51
2022/07/25 05:49:26;;;;;;;13.38;2.58;;;19.00;99.90;;;;;;4932035;29;20043;-53
2022/07/25 05:51:53;;;;;;;12.45;2.42;;;19.00;99.90;;;;;;4932085;29;20477;-53
2022/07/25 05:54:20;;;;;;;6.55;2.35;;;19.10;99.90;;;;;;4931931;29;20138;-50
2022/07/25 05:56:47;;;;;;;13.13;3.35;;;19.20;99.90;;;;;;4931933;29;20095;-52
2022/07/25 05:59:15;;;;;;;15.77;4.40;;;19.20;99.90;;;;;;4931862;29;20083;-52
2022/07/25 06:01:41;;;;;;;8.63;2.38;;;19.40;99.90;;;;;;4931697;29;20044;-54
2022/07/25 06:04:08;;;;;;;7.90;2.45;;;19.40;99.90;;;;;;4931711;29;20048;-54
2022/07/25 06:06:36;;;;;;;12.73;3.17;;;19.40;99.90;;;;;;4931881;29;20059;-53
2022/07/25 06:09:03;;;;;;;12.85;3.13;;;19.30;99.90;;;;;;4931850;29;20067;-53
2022/07/25 06:11:33;;;;;;;15.77;2.58;;;19.40;99.90;;;;;;4931919;29;20090;-50
2022/07/25 06:14:00;;;;;;;7.03;2.20;;;19.40;99.90;;;;;;4930408;29;20043;-53
2022/07/25 06:16:27;;;;;;;8.40;2.10;;;19.40;99.90;;;;;;4931375;29;20064;-53
2022/07/25 06:18:54;;;;;;;5.38;1.75;;;19.50;99.90;;;;;;4931233;29;20095;-50
2022/07/25 06:21:21;;;;;;;8.50;2.65;;;19.50;99.90;;;;;;4931645;29;20134;-55
2022/07/25 06:23:47;;;;;;;6.60;1.67;;;19.50;99.90;;;;;;4931314;29;20115;-55
2022/07/25 06:26:14;;;;;;;5.05;1.60;;;19.60;99.90;;;;;;4931532;29;20138;-54
2022/07/25 06:28:41;;;;;;;9.80;2.55;;;19.70;99.90;;;;;;4931196;29;20134;-54
2022/07/25 06:31:08;;;;;;;7.97;2.33;;;19.70;99.90;;;;;;4929001;29;20138;-54
2022/07/25 06:33:35;;;;;;;5.43;1.77;;;19.70;99.90;;;;;;4931601;29;20070;-54
2022/07/25 06:36:04;;;;;;;6.13;1.65;;;19.80;99.90;;;;;;4931083;29;20131;-54
2022/07/25 06:38:31;;;;;;;6.38;1.70;;;19.80;99.90;;;;;;4931245;29;20094;-55
2022/07/25 06:40:58;;;;;;;7.20;1.40;;;19.80;99.90;;;;;;4931061;29;20047;-54
2022/07/25 06:43:25;;;;;;;6.40;1.27;;;19.90;99.90;;;;;;4931707;29;20146;-53
2022/07/25 06:45:51;;;;;;;5.70;2.42;;;20.00;99.90;;;;;;4930792;29;20132;-55
2022/07/25 06:48:18;;;;;;;8.25;1.80;;;19.90;99.90;;;;;;4930699;29;20134;-55
2022/07/25 06:50:45;;;;;;;10.02;2.25;;;20.00;99.60;;;;;;4931330;29;20083;-54
2022/07/25 06:53:12;;;;;;;9.15;2.35;;;20.10;99.90;;;;;;4931010;29;20225;-52
2022/07/25 06:55:38;;;;;;;10.27;2.00;;;20.20;99.80;;;;;;4930761;29;20131;-52
2022/07/25 06:58:05;;;;;;;8.02;1.80;;;20.30;99.20;;;;;;4930870;29;20115;-54
2022/07/25 07:00:32;;;;;;;7.25;1.65;;;20.20;99.40;;;;;;4930709;29;20091;-52
2022/07/25 07:03:01;;;;;;;4.90;1.65;;;20.20;99.10;;;;;;4931281;29;20134;-53
2022/07/25 07:05:30;;;;;;;9.10;2.30;;;20.20;99.50;;;;;;4930698;29;20048;-54
2022/07/25 07:07:56;;;;;;;8.10;2.90;;;20.20;99.40;;;;;;4920835;29;20079;-53
2022/07/25 07:10:24;;;;;;;9.48;1.70;;;20.20;99.10;;;;;;4930587;29;20419;-54
2022/07/25 07:13:08;;;;;;;10.48;2.65;;;20.20;99.40;;;;;;4930766;29;20102;-55
2022/07/25 07:15:35;;;;;;;;;;;20.10;99.30;;;;;;4930741;29;20063;-52
2022/07/25 07:18:04;;;;;;;11.48;1.63;;;20.10;99.30;;;;;;4930848;29;19923;-52
2022/07/25 07:20:31;;;;;;;11.70;2.15;;;20.10;99.60;;;;;;4930393;29;20400;-53
2022/07/25 07:22:58;;;;;;;9.25;2.05;;;20.20;99.40;;;;;;4930724;29;20047;-53
2022/07/25 07:25:25;;;;;;;12.18;2.65;;;20.20;99.30;;;;;;4930473;29;20118;-53
2022/07/25 07:27:54;;;;;;;8.73;1.90;;;20.30;99.20;;;;;;4930665;29;20044;-52
2022/07/25 07:30:21;;;;;;;6.00;1.75;;;20.40;99.40;;;;;;4929462;29;20165;-50
2022/07/25 07:32:53;;;;;;;5.82;1.67;;;20.40;98.30;;;;;;4930266;29;20085;-54
2022/07/25 07:35:20;;;;;;;5.70;1.50;;;20.40;98.60;;;;;;4928985;29;20048;-53
2022/07/25 07:37:47;;;;;;;7.20;1.77;;;20.50;98.40;;;;;;4930432;29;20051;-51
2022/07/25 07:40:14;;;;;;;5.80;1.58;;;20.50;98.10;;;;;;4929403;29;20134;-55
2022/07/25 07:42:45;;;;;;;7.22;1.60;;;20.50;98.00;;;;;;4930416;29;20063;-55
2022/07/25 07:45:22;;;;;;;6.00;1.98;;;20.50;97.80;;;;;;4930172;29;20071;-52
2022/07/25 07:47:50;;;;;;;6.32;1.67;;;20.60;97.80;;;;;;4930153;29;20079;-49
2022/07/25 07:50:18;;;;;;;9.20;1.83;;;20.70;97.60;;;;;;4930422;29;20518;-48
2022/07/25 07:52:45;;;;;;;7.82;1.40;;;20.70;96.90;;;;;;4922451;29;20131;-51
2022/07/25 07:58:00;;;;;;;4.03;1.02;;;20.90;97.50;;;;;;4922620;29;20472;-53
2022/07/25 08:00:29;;;;;;;10.30;1.70;;;20.90;97.10;;;;;;4932441;29;20114;-52
2022/07/25 08:02:57;;;;;;;4.18;1.25;;;20.90;96.30;;;;;;4933911;29;20488;-54
2022/07/25 08:05:26;;;;;;;4.80;1.25;;;20.80;96.40;;;;;;4934058;29;20090;-52
2022/07/25 08:07:53;;;;;;;7.13;1.50;;;20.80;96.40;;;;;;4933967;29;20574;-54
2022/07/25 08:10:27;;;;;;;7.10;2.85;;;20.90;96.60;;;;;;4933918;29;20044;-53
2022/07/25 08:12:54;;;;;;;5.63;1.10;;;21.00;95.10;;;;;;4932052;29;20047;-53
2022/07/25 08:15:21;;;;;;;5.20;1.42;;;21.00;95.90;;;;;;4933827;29;20087;-55
2022/07/25 08:17:50;;;;;;;2.40;1.27;;;20.90;95.70;;;;;;4933440;29;20059;-54
2022/07/25 08:20:17;;;;;;;5.35;1.33;;;20.70;95.50;;;;;;4934099;29;20510;-51
2022/07/25 08:23:04;;;;;;;4.70;1.45;;;20.80;95.60;;;;;;4933503;29;20623;-56
2022/07/25 08:25:30;;;;;;;4.18;1.50;;;20.80;95.20;;;;;;4922714;29;20131;-51
2022/07/25 08:27:58;;;;;;;6.70;1.88;;;20.80;95.80;;;;;;4933485;29;20135;-51
2022/07/25 08:30:24;;;;;;;6.32;1.13;;;20.80;95.60;;;;;;4933587;29;20165;-54
2022/07/25 08:32:53;;;;;;;6.07;1.45;;;20.80;95.60;;;;;;4932151;29;20162;-51
2022/07/25 08:35:20;;;;;;;3.20;0.82;;;20.80;95.50;;;;;;4933609;29;20099;-53
2022/07/25 08:37:47;;;;;;;5.47;1.63;;;20.80;94.90;;;;;;4933712;29;20270;-53
2022/07/25 08:40:15;;;;;;;4.43;0.93;;;20.90;94.70;;;;;;4933548;29;20208;-53
2022/07/25 08:42:42;;;;;;;4.95;1.13;;;21.00;94.70;;;;;;4933393;29;20079;-54
2022/07/25 08:45:12;;;;;;;3.95;1.23;;;21.00;94.40;;;;;;4933575;29;20142;-53
2022/07/25 08:47:39;;;;;;;5.10;1.77;;;21.00;94.20;;;;;;4933580;29;20051;-51
2022/07/25 08:50:08;;;;;;;2.33;0.93;;;21.00;94.40;;;;;;4933584;29;20102;-55
2022/07/25 08:52:36;;;;;;;4.35;0.88;;;20.90;94.10;;;;;;4933419;29;20610;-55
2022/07/25 08:55:04;;;;;;;2.80;0.82;;;20.90;94.50;;;;;;4933023;29;20562;-55
2022/07/25 08:57:31;;;;;;;3.72;1.25;;;20.80;94.70;;;;;;4933198;29;20478;-53
2022/07/25 08:59:58;;;;;;;3.92;1.05;;;20.90;94.80;;;;;;4932074;29;20459;-52
2022/07/25 09:02:28;;;;;;;3.28;0.95;;;20.90;94.70;;;;;;4933151;29;20075;-55
2022/07/25 09:04:56;;;;;;;4.97;1.75;;;20.90;94.50;;;;;;4933177;29;20044;-54
2022/07/25 09:07:32;;;;;;;9.73;1.67;;;21.00;94.80;;;;;;4932736;29;20087;-53
2022/07/25 09:10:23;;;;;;;4.50;1.17;;;21.00;94.20;;;;;;4930603;29;20079;-53
2022/07/25 09:12:54;;;;;;;5.50;1.25;;;21.00;93.70;;;;;;4932236;29;20071;-53
2022/07/25 09:15:25;;;;;;;4.35;1.00;;;20.90;94.20;;;;;;4932575;29;20098;-50
2022/07/25 09:17:52;;;;;;;3.40;1.52;;;20.80;94.10;;;;;;4932614;29;20051;-54
2022/07/25 09:20:20;;;;;;;3.92;1.15;;;20.70;94.60;;;;;;4932783;29;20098;-51
2022/07/25 09:22:47;;;;;;;3.70;1.00;;;20.60;94.80;;;;;;4933163;29;20083;-49
2022/07/25 09:25:24;;;;;;;3.70;1.00;;;20.60;94.90;;;;;;4931428;29;20079;-52
2022/07/25 09:27:51;;;;;;;5.30;1.27;;;20.50;94.70;;;;;;4931558;29;20078;-54
2022/07/25 09:30:18;;;;;;;5.63;0.85;;;20.50;94.70;;;;;;4915375;29;20135;-53
2022/07/25 09:32:45;;;;;;;5.53;1.27;;;20.50;95.00;;;;;;4932783;29;20119;-52
2022/07/25 09:35:12;;;;;;;6.60;0.70;;;20.50;94.80;;;;;;4932249;29;20151;-53
2022/07/25 09:37:38;;;;;;;6.82;1.00;;;20.60;94.90;;;;;;4932471;29;20087;-54
2022/07/25 09:40:14;;;;;;;3.90;0.90;;;20.70;94.70;;;;;;4932265;29;20062;-51
2022/07/25 09:42:41;;;;;;;5.05;1.20;;;20.70;94.60;;;;;;4929273;29;20479;-52
2022/07/25 09:45:11;;;;;;;4.63;1.15;;;20.80;94.70;;;;;;4931101;29;20048;-55
2022/07/25 09:47:52;;;;;;;3.47;1.20;;;21.00;94.60;;;;;;4930910;29;20075;-53
2022/07/25 09:50:19;;;;;;;5.25;0.95;;;21.20;93.60;;;;;;4927735;29;20394;-54
2022/07/25 09:52:46;;;;;;;3.78;0.90;;;21.40;94.20;;;;;;4931901;29;20138;-54
2022/07/25 09:55:14;;;;;;;5.03;1.23;;;21.50;93.70;;;;;;4931918;29;20329;-51
2022/07/25 09:57:41;;;;;;;6.05;1.50;;;21.50;93.30;;;;;;4932150;29;20055;-52
2022/07/25 10:00:08;;;;;;;3.35;1.08;;;21.40;93.20;;;;;;4931835;29;20130;-53
2022/07/25 10:02:54;;;;;;;3.92;1.55;;;21.30;93.10;;;;;;4931782;29;20059;-54
2022/07/25 10:05:43;;;;;;;2.25;0.80;;;21.30;93.10;;;;;;4922563;29;20047;-52
2022/07/25 10:08:10;;;;;;;4.45;1.13;;;21.40;93.20;;;;;;4913853;29;20412;-52
2022/07/25 10:10:38;;;;;;;5.60;1.13;;;21.40;93.70;;;;;;4930487;29;20134;-53
2022/07/25 10:13:05;;;;;;;7.22;0.98;;;21.50;93.30;;;;;;4931864;29;20496;-51
2022/07/25 10:15:41;;;;;;;2.33;0.75;;;21.70;93.00;;;;;;4931591;29;20476;-51
2022/07/25 10:18:08;;;;;;;2.72;0.70;;;21.70;91.80;;;;;;4931796;29;20082;-53
2022/07/25 10:20:35;;;;;;;2.25;0.70;;;21.80;92.10;;;;;;4931876;29;20083;-52
2022/07/25 10:23:02;;;;;;;4.38;1.08;;;21.90;91.70;;;;;;4931018;29;20071;-50
2022/07/25 10:25:29;;;;;;;3.53;0.80;;;21.90;92.40;;;;;;4930113;29;20079;-52
2022/07/25 10:28:08;;;;;;;2.10;0.90;;;22.30;91.50;;;;;;4931708;29;20051;-50
2022/07/25 10:30:37;;;;;;;3.53;0.90;;;22.40;89.80;;;;;;4931142;29;20052;-53
2022/07/25 10:33:05;;;;;;;2.38;0.70;;;22.50;90.90;;;;;;4923089;29;20047;-52
2022/07/25 10:35:32;;;;;;;4.97;1.00;;;22.50;88.90;;;;;;4931866;29;20091;-55
2022/07/25 10:38:01;;;;;;;2.80;0.98;;;22.30;87.60;;;;;;4931371;29;20093;-52
2022/07/25 10:40:38;;;;;;;3.42;0.70;;;22.10;88.80;;;;;;4931497;29;20082;-54
2022/07/25 10:43:19;;;;;;;3.72;0.93;;;22.10;89.40;;;;;;4928806;29;20086;-52
2022/07/25 10:45:58;;;;;;;3.85;0.88;;;22.30;88.40;;;;;;4930961;29;20551;-53
2022/07/25 10:48:30;;;;;;;2.45;0.80;;;22.50;88.00;;;;;;4931036;29;20082;-53
2022/07/25 10:50:59;;;;;;;2.30;0.70;;;22.50;87.80;;;;;;4931004;29;20070;-54
2022/07/25 10:53:32;;;;;;;5.30;0.80;;;22.70;86.30;;;;;;4929695;29;20063;-51
2022/07/25 10:56:06;;;;;;;2.88;0.80;;;22.80;85.80;;;;;;4931038;29;20138;-54
2022/07/25 10:58:47;;;;;;;0.70;0.50;;;22.80;84.30;;;;;;4928322;29;20126;-54
2022/07/25 11:01:18;;;;;;;3.60;0.50;;;22.80;83.50;;;;;;4929866;29;20078;-54
2022/07/25 11:03:45;;;;;;;2.38;0.60;;;22.80;83.70;;;;;;4930840;29;20134;-54
2022/07/25 11:06:13;;;;;;;2.90;0.55;;;22.80;83.90;;;;;;4930700;29;20520;-52
2022/07/25 11:08:41;;;;;;;0.93;0.55;;;22.80;84.60;;;;;;4930952;29;20051;-52
2022/07/25 11:11:08;;;;;;;2.63;0.73;;;22.80;84.10;;;;;;4930908;29;20134;-54
2022/07/25 11:13:41;;;;;;;1.67;0.60;;;22.80;82.50;;;;;;4930588;29;20719;-52
2022/07/25 11:16:11;;;;;;;4.38;1.20;;;22.80;81.80;;;;;;4929469;29;20075;-54
2022/07/25 11:18:39;;;;;;;0.93;0.35;;;22.90;83.90;;;;;;4930148;29;20043;-53
2022/07/25 11:21:07;;;;;;;2.00;0.65;;;22.80;83.10;;;;;;4930689;29;20560;-53
2022/07/25 11:23:34;;;;;;;1.33;0.60;;;22.70;83.70;;;;;;4930858;29;20071;-54
2022/07/25 11:26:05;;;;;;;3.03;0.85;;;22.50;83.30;;;;;;4930671;29;20494;-54
2022/07/25 11:28:46;;;;;;;0.65;0.40;;;22.40;84.80;;;;;;4930642;29;20082;-54
2022/07/25 11:31:13;;;;;;;3.38;0.60;;;22.50;84.90;;;;;;4930137;29;20071;-55
2022/07/25 11:33:41;;;;;;;1.40;0.70;;;22.40;84.90;;;;;;4930492;29;20135;-55
2022/07/25 11:36:09;;;;;;;0.55;0.32;;;22.50;83.60;;;;;;4932515;29;20043;-55
2022/07/25 11:38:37;;;;;;;1.23;0.30;;;22.40;84.10;;;;;;4933172;29;20151;-51
2022/07/25 11:41:04;;;;;;;2.15;0.85;;;22.30;85.30;;;;;;4914863;29;20072;-52
2022/07/25 11:43:31;;;;;;;1.73;0.70;;;22.20;86.50;;;;;;4934186;29;20356;-53
2022/07/25 11:46:05;;;;;;;4.50;0.93;;;22.10;90.30;;;;;;4934240;29;20572;-49
2022/07/25 11:48:37;;;;;;;2.78;0.70;;;21.70;92.60;;;;;;4934062;29;20070;-54
2022/07/25 11:51:10;;;;;;;2.50;0.70;;;21.30;94.10;;;;;;4934148;29;20054;-53
2022/07/25 11:53:48;;;;;;;0.93;0.40;;;21.20;95.70;;;;;;4933719;29;20051;-55
2022/07/25 11:56:20;;;;;;;2.15;0.63;;;21.10;96.20;;;;;;4933759;29;20052;-52
2022/07/25 11:59:06;;;;;;;6.28;0.88;;;21.00;96.30;;;;;;4924393;29;20091;-54
2022/07/25 12:01:36;;;;;;;2.30;0.82;;;21.10;96.10;;;;;;4933971;29;20048;-53
2022/07/25 12:04:17;;;;;;;5.50;0.65;;;21.20;95.50;;;;;;4933971;29;20075;-55
2022/07/25 12:06:46;;;;;;;4.85;0.90;;;21.50;95.50;;;;;;4933817;29;20582;-53
2022/07/25 12:09:17;;;;;;;4.78;0.80;;;21.70;94.60;;;;;;4933593;29;20047;-51
2022/07/25 12:11:46;;;;;;;10.13;0.98;;;22.00;93.90;;;;;;4933833;29;20488;-53
2022/07/25 12:14:14;;;;;;;4.70;0.70;;;22.10;93.10;;;;;;4933977;29;20102;-53
2022/07/25 12:16:41;;;;;;;3.83;0.80;;;21.90;93.00;;;;;;4933524;29;20055;-53
2022/07/25 12:19:08;;;;;;;8.82;1.17;;;22.00;94.30;;;;;;4933604;29;20050;-50
2022/07/25 12:21:36;;;;;;;4.15;1.30;;;22.00;94.80;;;;;;4933605;29;20067;-54
2022/07/25 12:24:03;;;;;;;2.58;1.00;;;21.70;94.80;;;;;;4933738;29;20126;-55
2022/07/25 12:26:30;;;;;;;5.50;0.80;;;21.80;95.20;;;;;;4933147;29;20433;-55
2022/07/25 12:28:57;;;;;;;1.42;0.70;;;21.80;94.80;;;;;;4933905;29;20103;-53
2022/07/25 12:31:27;;;;;;;5.38;0.93;;;21.90;94.50;;;;;;4932877;29;20444;-49
2022/07/25 12:33:54;;;;;;;1.48;0.55;;;22.00;94.20;;;;;;4933562;29;20058;-53
2022/07/25 12:36:21;;;;;;;5.95;1.27;;;22.00;94.00;;;;;;4931926;29;20051;-52
2022/07/25 12:38:48;;;;;;;2.38;0.70;;;22.20;93.80;;;;;;4933201;29;20094;-51
2022/07/25 12:41:16;;;;;;;3.05;0.90;;;22.10;93.90;;;;;;4933260;29;20135;-55
2022/07/25 12:43:43;;;;;;;8.90;1.77;;;22.10;93.90;;;;;;4930175;29;20139;-54
2022/07/25 12:46:10;;;;;;;2.65;1.00;;;21.90;94.00;;;;;;4932193;29;20139;-54
2022/07/25 12:48:37;;;;;;;3.70;0.90;;;21.90;94.00;;;;;;4932741;29;20499;-54
2022/07/25 12:51:04;;;;;;;4.28;0.70;;;21.90;93.90;;;;;;4933337;29;20074;-54
2022/07/25 12:53:31;;;;;;;2.63;1.00;;;21.80;94.00;;;;;;4933063;29;20047;-53
2022/07/25 12:55:58;;;;;;;3.28;0.60;;;21.80;93.70;;;;;;4932897;29;20126;-53